Etusivu
METAR-TAF:

METAR-TAF

Lentoasemat :

Iowa County Airport

Mineral Point, Wisconsin, Yhdysvallat

Leveyspiiri: 42-53-07N, Pituuspiiri: 090-13-55W, korkeus merenpinnasta: 359 m

Tämänhetkinen sää

Tämä raportti tehtiin 24 minuuttia sitten, kello 12.15 UTC
Tuuli 6 kn pohjoisesta/koillisesta
Lämpötila 0°C
Kosteus 80%
Ilmanpaine 1013 hPa
Näkyvyys: 16.1 km
selkeää

METAR: KMRJ 241215Z AUTO 02006KT 10SM CLR 00/M03 A2992 RMK AO2

Aika: 06:39 (12:39 UTC)


TAF: puuttuu

Säähavainnot ja -ennusteet yli 4000 lentoasemalta (METAR- ja TAF-raportit).

Käytössä olevat sääasemat on merkitty karttaan keltaisilla ja punaisilla pisteillä.

Aseta hiiri pisteen päälle nähdäksesi sääaseman nimen.

Klikkaa sitten nähdäksesi säähavainnot ja -ennusteet.

Kartan vaihtaminen: klikkaa mustalla rastilla varustettuja vihreitä pisteitä, niin voit zoomata sisään; viivalla varustettua vihreää pistettä, niin voit zoomata ulos tai vihreitä nuolia, niin pääset viereisille kartoille.


METAR-TAF: